createdAt,value
2022-10-26T00:01:12.513Z,7.90
2022-10-26T00:03:41.664Z,7.97
2022-10-26T00:06:18.505Z,7.53
2022-10-26T00:08:46.310Z,8.40
2022-10-26T00:11:14.442Z,8.18
2022-10-26T00:13:42.346Z,7.80
2022-10-26T00:16:16.084Z,7.72
2022-10-26T00:18:43.827Z,7.07
2022-10-26T00:21:11.703Z,7.40
2022-10-26T00:23:39.032Z,6.88
2022-10-26T00:26:06.965Z,6.55
2022-10-26T00:28:34.225Z,6.90
2022-10-26T00:31:06.776Z,6.55
2022-10-26T00:33:34.412Z,6.68
2022-10-26T00:36:01.669Z,5.55
2022-10-26T00:38:29.230Z,6.22
2022-10-26T00:43:24.897Z,5.43
2022-10-26T00:45:55.429Z,5.88
2022-10-26T00:48:26.424Z,5.80
2022-10-26T00:50:55.111Z,6.13
2022-10-26T00:53:22.444Z,5.85
2022-10-26T00:55:52.467Z,5.85
2022-10-26T00:58:21.769Z,5.32
2022-10-26T01:00:49.716Z,5.25
2022-10-26T01:03:17.588Z,5.60
2022-10-26T01:05:47.712Z,5.25
2022-10-26T01:08:16.914Z,6.18
2022-10-26T01:10:44.304Z,5.72
2022-10-26T01:13:13.076Z,6.00
2022-10-26T01:15:53.418Z,5.63
2022-10-26T01:18:45.968Z,6.15
2022-10-26T01:21:33.846Z,5.65
2022-10-26T01:24:26.291Z,5.63
2022-10-26T01:27:23.555Z,6.32
2022-10-26T01:30:19.536Z,6.25
2022-10-26T01:33:15.194Z,5.97
2022-10-26T01:35:55.275Z,6.00
2022-10-26T01:38:36.627Z,6.07
2022-10-26T01:41:13.765Z,5.80
2022-10-26T01:43:48.633Z,6.38
2022-10-26T01:48:54.199Z,5.85
2022-10-26T01:51:21.731Z,6.90
2022-10-26T01:53:49.021Z,7.32
2022-10-26T01:56:38.931Z,6.13
2022-10-26T01:59:29.604Z,6.97
2022-10-26T02:02:23.180Z,6.90
2022-10-26T02:05:02.003Z,7.30
2022-10-26T02:07:41.777Z,6.97
2022-10-26T02:10:27.329Z,7.68
2022-10-26T02:12:54.273Z,7.40
2022-10-26T02:15:29.281Z,7.82
2022-10-26T02:18:03.590Z,7.50
2022-10-26T02:20:36.115Z,6.63
2022-10-26T02:23:07.192Z,6.70
2022-10-26T02:25:40.935Z,7.47
2022-10-26T02:28:13.006Z,7.07
2022-10-26T02:30:41.924Z,7.22
2022-10-26T02:33:12.166Z,6.18
2022-10-26T02:35:43.312Z,6.70
2022-10-26T02:38:13.196Z,6.82
2022-10-26T02:40:41.260Z,6.55
2022-10-26T02:43:21.958Z,7.15
2022-10-26T02:45:57.256Z,7.28
2022-10-26T02:48:24.465Z,6.90
2022-10-26T02:51:00.113Z,6.53
2022-10-26T02:53:35.495Z,6.63
2022-10-26T02:56:26.157Z,6.25
2022-10-26T02:58:57.545Z,6.63
2022-10-26T03:01:25.340Z,6.80
2022-10-26T03:03:57.814Z,6.50
2022-10-26T03:06:25.408Z,5.88
2022-10-26T03:08:52.759Z,5.75
2022-10-26T03:11:19.743Z,6.50
2022-10-26T03:13:46.790Z,6.65
2022-10-26T03:16:13.784Z,6.20
2022-10-26T03:18:40.803Z,5.72
2022-10-26T03:21:07.862Z,6.20
2022-10-26T03:23:34.844Z,6.10
2022-10-26T03:26:01.857Z,6.72
2022-10-26T03:28:29.043Z,5.93
2022-10-26T03:30:56.280Z,6.57
2022-10-26T03:33:25.709Z,6.57
2022-10-26T03:35:59.475Z,5.63
2022-10-26T03:38:26.509Z,6.43
2022-10-26T03:40:53.602Z,6.25
2022-10-26T03:43:20.635Z,5.50
2022-10-26T03:45:47.793Z,6.43
2022-10-26T03:48:14.853Z,5.70
2022-10-26T03:50:41.879Z,5.97
2022-10-26T03:53:09.101Z,5.68
2022-10-26T03:55:36.162Z,5.80
2022-10-26T03:58:04.559Z,6.40
2022-10-26T04:00:31.657Z,5.85
2022-10-26T04:03:00.034Z,6.05
2022-10-26T04:05:28.982Z,5.25
2022-10-26T04:07:58.022Z,5.32
2022-10-26T04:10:26.566Z,5.57
2022-10-26T04:12:54.696Z,5.88
2022-10-26T04:15:22.429Z,5.43
2022-10-26T04:17:56.241Z,5.60
2022-10-26T04:20:23.728Z,5.57
2022-10-26T04:22:58.141Z,5.80
2022-10-26T04:25:27.547Z,5.00
2022-10-26T04:27:57.776Z,5.70
2022-10-26T04:30:25.155Z,5.55
2022-10-26T04:32:52.262Z,5.53
2022-10-26T04:35:19.315Z,6.13
2022-10-26T04:37:46.300Z,4.85
2022-10-26T04:40:13.438Z,5.72
2022-10-26T04:42:41.730Z,5.38
2022-10-26T04:45:09.628Z,5.47
2022-10-26T04:47:37.220Z,5.63
2022-10-26T04:50:05.187Z,5.68
2022-10-26T04:52:32.187Z,5.35
2022-10-26T04:54:59.561Z,6.28
2022-10-26T04:57:26.613Z,5.30
2022-10-26T04:59:53.616Z,5.43
2022-10-26T05:02:21.222Z,6.35
2022-10-26T05:04:48.506Z,5.85
2022-10-26T05:07:15.555Z,5.57
2022-10-26T05:09:43.015Z,5.72
2022-10-26T05:12:10.012Z,5.55
2022-10-26T05:14:37.084Z,5.57
2022-10-26T05:17:04.173Z,5.88
2022-10-26T05:19:31.161Z,5.75
2022-10-26T05:22:01.093Z,5.70
2022-10-26T05:24:28.116Z,5.82
2022-10-26T05:26:55.211Z,4.70
2022-10-26T05:29:37.832Z,5.75
2022-10-26T05:32:05.142Z,5.75
2022-10-26T05:34:32.209Z,6.30
2022-10-26T05:36:59.687Z,4.82
2022-10-26T05:39:26.729Z,5.55
2022-10-26T05:41:53.720Z,5.43
2022-10-26T05:44:20.783Z,5.13
2022-10-26T05:49:19.691Z,5.78
2022-10-26T05:51:46.687Z,5.55
2022-10-26T05:54:14.115Z,5.78
2022-10-26T05:56:42.281Z,5.90
2022-10-26T05:59:17.046Z,5.63
2022-10-26T06:02:04.990Z,6.00
2022-10-26T06:04:48.705Z,6.45
2022-10-26T06:07:19.991Z,6.43
2022-10-26T06:09:47.792Z,5.82
2022-10-26T06:12:18.525Z,6.43
2022-10-26T06:14:47.356Z,5.63
2022-10-26T06:17:37.092Z,5.90
2022-10-26T06:20:22.137Z,6.05
2022-10-26T06:22:49.496Z,6.57
2022-10-26T06:25:24.003Z,5.03
2022-10-26T06:28:18.618Z,5.45
2022-10-26T06:30:45.756Z,5.70
2022-10-26T06:33:28.539Z,5.40
2022-10-26T06:36:08.221Z,5.50
2022-10-26T06:38:38.021Z,6.60
2022-10-26T06:41:05.892Z,5.15
2022-10-26T06:43:35.485Z,5.32
2022-10-26T06:46:06.312Z,4.97
2022-10-26T06:48:46.816Z,5.53
2022-10-26T06:51:16.257Z,5.35
2022-10-26T06:53:53.043Z,5.75
2022-10-26T06:56:20.653Z,5.35
2022-10-26T06:58:49.306Z,5.40
2022-10-26T07:01:17.602Z,4.95
2022-10-26T07:03:44.803Z,4.68
2022-10-26T07:06:11.865Z,4.85
2022-10-26T07:08:39.017Z,5.43
2022-10-26T07:11:06.124Z,5.22
2022-10-26T07:13:33.170Z,4.88
2022-10-26T07:16:00.207Z,5.40
2022-10-26T07:18:27.267Z,4.60
2022-10-26T07:20:54.260Z,4.78
2022-10-26T07:23:23.182Z,4.95
2022-10-26T07:25:50.254Z,4.88
2022-10-26T07:28:17.288Z,4.72
2022-10-26T07:30:44.394Z,5.05
2022-10-26T07:33:14.005Z,4.82
2022-10-26T07:35:42.164Z,5.47
2022-10-26T07:38:09.568Z,4.55
2022-10-26T07:40:38.020Z,4.00
2022-10-26T07:43:05.092Z,4.90
2022-10-26T07:45:32.338Z,4.07
2022-10-26T07:47:59.503Z,3.97
2022-10-26T07:50:27.866Z,4.28
2022-10-26T07:52:54.980Z,4.38
2022-10-26T07:55:22.080Z,3.95
2022-10-26T07:57:52.603Z,3.72
2022-10-26T08:00:22.175Z,4.55
2022-10-26T08:02:49.338Z,3.60
2022-10-26T08:05:16.679Z,4.25
2022-10-26T08:07:44.781Z,4.00
2022-10-26T08:10:12.824Z,4.45
2022-10-26T08:12:40.400Z,3.75
2022-10-26T08:15:08.210Z,4.65
2022-10-26T08:17:35.410Z,4.00
2022-10-26T08:20:02.890Z,3.97
2022-10-26T08:22:30.901Z,3.25
2022-10-26T08:24:58.249Z,3.83
2022-10-26T08:27:25.518Z,3.85
2022-10-26T08:29:52.569Z,3.90
2022-10-26T08:32:19.661Z,3.90
2022-10-26T08:34:46.712Z,3.53
2022-10-26T08:37:13.807Z,3.97
2022-10-26T08:39:40.811Z,3.63
2022-10-26T08:42:31.192Z,4.18
2022-10-26T08:45:03.716Z,3.92
2022-10-26T08:47:35.879Z,3.13
2022-10-26T08:50:10.323Z,3.40
2022-10-26T08:53:17.730Z,4.05
2022-10-26T08:55:49.159Z,3.28
2022-10-26T08:58:20.421Z,3.22
2022-10-26T09:00:49.893Z,3.60
2022-10-26T09:03:18.689Z,3.13
2022-10-26T09:06:04.912Z,3.33
2022-10-26T09:08:46.184Z,3.38
2022-10-26T09:11:58.149Z,3.38
2022-10-26T09:14:39.310Z,3.63
2022-10-26T09:17:37.937Z,2.40
2022-10-26T09:20:41.398Z,3.28
2022-10-26T09:23:08.364Z,3.22
2022-10-26T09:25:39.751Z,3.60
2022-10-26T09:28:15.178Z,3.05
2022-10-26T09:30:44.622Z,3.00
2022-10-26T09:33:17.752Z,2.90
2022-10-26T09:35:56.819Z,3.42
2022-10-26T09:38:33.085Z,3.28
2022-10-26T09:41:06.524Z,3.03
2022-10-26T09:43:38.020Z,3.40
2022-10-26T09:46:05.101Z,3.25
2022-10-26T09:48:57.985Z,2.67
2022-10-26T09:51:27.142Z,3.25
2022-10-26T09:53:56.966Z,2.70
2022-10-26T09:56:28.330Z,3.65
2022-10-26T09:59:05.581Z,3.20
2022-10-26T10:01:39.909Z,3.30
2022-10-26T10:04:13.985Z,2.80
2022-10-26T10:06:41.718Z,2.47
2022-10-26T10:09:22.761Z,2.78
2022-10-26T10:11:59.565Z,2.78
2022-10-26T10:14:48.219Z,2.45
2022-10-26T10:17:22.413Z,2.28
2022-10-26T10:19:50.232Z,3.30
2022-10-26T10:22:19.932Z,2.42
2022-10-26T10:24:55.646Z,2.80
2022-10-26T10:27:23.573Z,2.50
2022-10-26T10:29:59.722Z,2.00
2022-10-26T10:32:35.408Z,3.08
2022-10-26T10:35:24.270Z,2.30
2022-10-26T10:37:52.205Z,2.95
2022-10-26T10:40:26.058Z,2.20
2022-10-26T10:43:03.561Z,2.60
2022-10-26T10:45:31.430Z,2.20
2022-10-26T10:48:23.365Z,2.38
2022-10-26T10:50:59.887Z,2.70
2022-10-26T10:53:41.832Z,2.58
2022-10-26T10:56:11.524Z,2.30
2022-10-26T10:58:47.957Z,2.53
2022-10-26T11:01:21.097Z,2.33
2022-10-26T11:03:59.512Z,2.47
2022-10-26T11:06:29.972Z,2.28
2022-10-26T11:08:59.994Z,3.10
2022-10-26T11:11:45.585Z,1.63
2022-10-26T11:14:23.729Z,2.30
2022-10-26T11:17:04.323Z,2.60
2022-10-26T11:19:42.474Z,1.98
2022-10-26T11:22:20.618Z,3.40
2022-10-26T11:24:54.412Z,3.50
2022-10-26T11:27:44.108Z,3.45
2022-10-26T11:30:18.564Z,3.35
2022-10-26T11:32:56.837Z,3.42
2022-10-26T11:35:44.092Z,4.03
2022-10-26T11:38:45.295Z,2.92
2022-10-26T11:41:21.359Z,3.22
2022-10-26T11:43:53.292Z,3.20
2022-10-26T11:46:48.460Z,3.10
2022-10-26T11:49:34.928Z,2.63
2022-10-26T11:52:17.890Z,2.03
2022-10-26T11:54:52.123Z,3.15
2022-10-26T11:57:21.982Z,3.03
2022-10-26T11:59:53.770Z,2.65
2022-10-26T12:02:25.713Z,3.00
2022-10-26T12:05:30.804Z,2.17
2022-10-26T12:08:08.221Z,3.15
2022-10-26T12:10:39.595Z,2.20
2022-10-26T12:13:31.509Z,2.58
2022-10-26T12:16:13.573Z,2.85
2022-10-26T12:18:56.380Z,2.00
2022-10-26T12:21:30.320Z,1.83
2022-10-26T12:24:21.715Z,2.40
2022-10-26T12:27:02.583Z,2.20
2022-10-26T12:29:44.984Z,2.10
2022-10-26T12:32:31.104Z,2.42
2022-10-26T12:35:01.079Z,2.20
2022-10-26T12:37:37.541Z,2.10
2022-10-26T12:40:32.548Z,2.50
2022-10-26T12:43:14.932Z,2.08
2022-10-26T12:45:43.688Z,2.30
2022-10-26T12:48:43.754Z,2.00
2022-10-26T12:51:20.822Z,2.35
2022-10-26T12:54:09.076Z,2.00
2022-10-26T12:57:08.724Z,2.10
2022-10-26T12:59:41.648Z,1.55
2022-10-26T13:02:36.426Z,1.73
2022-10-26T13:05:41.807Z,1.90
2022-10-26T13:08:11.630Z,2.00
2022-10-26T13:10:55.235Z,1.65
2022-10-26T13:13:24.047Z,2.17
2022-10-26T13:16:00.163Z,1.58
2022-10-26T13:18:28.356Z,2.28
2022-10-26T13:21:11.571Z,2.00
2022-10-26T13:23:42.309Z,2.20
2022-10-26T13:26:12.769Z,2.72
2022-10-26T13:28:39.940Z,2.03
2022-10-26T13:31:31.470Z,2.40
2022-10-26T13:34:10.686Z,2.00
2022-10-26T13:36:56.610Z,2.33
2022-10-26T13:39:29.105Z,2.35
2022-10-26T13:41:58.947Z,2.28
2022-10-26T13:44:31.298Z,2.42
2022-10-26T13:47:03.226Z,2.35
2022-10-26T13:49:36.525Z,2.63
2022-10-26T13:52:05.622Z,2.50
2022-10-26T13:54:49.935Z,2.28
2022-10-26T13:57:43.702Z,2.03
2022-10-26T14:00:19.273Z,2.05
2022-10-26T14:02:47.003Z,3.42
2022-10-26T14:05:17.208Z,2.65
2022-10-26T14:07:54.067Z,2.95
2022-10-26T14:10:41.639Z,2.33
2022-10-26T14:13:14.361Z,1.98
2022-10-26T14:15:48.424Z,2.47
2022-10-26T14:18:21.311Z,3.63
2022-10-26T14:20:59.982Z,2.70
2022-10-26T14:23:45.721Z,2.58
2022-10-26T14:26:26.103Z,2.28
2022-10-26T14:28:59.546Z,2.47
2022-10-26T14:31:32.000Z,2.72
2022-10-26T14:34:04.098Z,3.30
2022-10-26T14:36:37.449Z,3.13
2022-10-26T14:39:16.182Z,2.72
2022-10-26T14:41:43.556Z,2.55
2022-10-26T14:44:19.287Z,2.60
2022-10-26T14:46:46.535Z,2.13
2022-10-26T14:49:22.657Z,3.15
2022-10-26T14:51:56.042Z,2.13
2022-10-26T14:54:25.988Z,2.33
2022-10-26T14:56:53.146Z,2.00
2022-10-26T14:59:24.925Z,2.53
2022-10-26T15:01:56.492Z,2.40
2022-10-26T15:04:37.515Z,2.05
2022-10-26T15:07:07.214Z,1.80
2022-10-26T15:09:43.124Z,1.40
2022-10-26T15:12:38.456Z,1.40
2022-10-26T15:15:08.517Z,1.45
2022-10-26T15:17:42.277Z,1.08
2022-10-26T15:22:49.034Z,2.22
2022-10-26T15:25:23.053Z,1.15
2022-10-26T15:27:51.333Z,1.90
2022-10-26T15:30:23.159Z,1.77
2022-10-26T15:32:51.824Z,1.50
2022-10-26T15:35:18.928Z,1.50
2022-10-26T15:37:47.456Z,1.35
2022-10-26T15:40:15.073Z,1.48
2022-10-26T15:42:45.196Z,1.42
2022-10-26T15:45:24.403Z,1.38
2022-10-26T15:47:53.229Z,1.33
2022-10-26T15:50:22.863Z,2.58
2022-10-26T15:52:50.983Z,2.00
2022-10-26T15:55:18.207Z,1.48
2022-10-26T15:57:46.037Z,1.73
2022-10-26T16:00:18.486Z,1.77
2022-10-26T16:02:48.961Z,2.03
2022-10-26T16:05:16.922Z,1.50
2022-10-26T16:07:46.695Z,1.60
2022-10-26T16:10:25.058Z,1.33
2022-10-26T16:12:52.851Z,1.45
2022-10-26T16:15:24.711Z,1.40
2022-10-26T16:17:52.141Z,1.52
2022-10-26T16:20:23.430Z,1.48
2022-10-26T16:22:52.561Z,1.63
2022-10-26T16:25:23.827Z,1.60
2022-10-26T16:27:51.638Z,1.52
2022-10-26T16:30:20.235Z,2.35
2022-10-26T16:32:47.479Z,1.75
2022-10-26T16:35:15.086Z,1.85
2022-10-26T16:37:42.384Z,1.92
2022-10-26T16:40:10.033Z,1.48
2022-10-26T16:42:37.098Z,1.90
2022-10-26T16:45:04.573Z,1.48
2022-10-26T16:47:39.699Z,1.55
2022-10-26T16:50:11.601Z,1.85
2022-10-26T16:52:39.334Z,2.38
2022-10-26T16:55:08.983Z,1.45
2022-10-26T16:57:37.009Z,2.47
2022-10-26T17:00:06.424Z,2.13
2022-10-26T17:02:33.737Z,2.03
2022-10-26T17:05:07.188Z,2.33
2022-10-26T17:07:35.580Z,2.03
2022-10-26T17:10:02.719Z,1.90
2022-10-26T17:12:29.960Z,2.20
2022-10-26T17:14:58.804Z,2.10
2022-10-26T17:17:25.945Z,1.92
2022-10-26T17:19:53.188Z,1.55
2022-10-26T17:22:20.209Z,2.30
2022-10-26T17:24:47.299Z,2.05
2022-10-26T17:27:16.495Z,3.00
2022-10-26T17:29:43.481Z,2.92
2022-10-26T17:32:10.504Z,2.35
2022-10-26T17:34:37.532Z,2.30
2022-10-26T17:37:04.627Z,2.75
2022-10-26T17:39:31.609Z,3.17
2022-10-26T17:41:59.245Z,2.42
2022-10-26T17:44:26.478Z,2.28
2022-10-26T17:46:53.486Z,2.95
2022-10-26T17:49:24.848Z,4.15
2022-10-26T17:51:53.891Z,3.75
2022-10-26T17:54:21.050Z,3.75
2022-10-26T17:56:48.101Z,4.18
2022-10-26T17:59:15.160Z,3.45
2022-10-26T18:01:43.386Z,3.00
2022-10-26T18:04:10.647Z,2.55
2022-10-26T18:06:37.681Z,3.47
2022-10-26T18:09:04.745Z,3.42
2022-10-26T18:14:03.952Z,4.10
2022-10-26T18:16:31.399Z,3.63
2022-10-26T18:19:01.651Z,3.50
2022-10-26T18:21:31.148Z,3.70
2022-10-26T18:23:58.498Z,3.53
2022-10-26T18:26:29.367Z,2.83
2022-10-26T18:28:58.364Z,3.35
2022-10-26T18:31:27.018Z,3.50
2022-10-26T18:33:56.215Z,4.07
2022-10-26T18:36:24.105Z,3.53
2022-10-26T18:38:51.663Z,3.10
2022-10-26T18:41:20.716Z,4.43
2022-10-26T18:43:50.280Z,4.60
2022-10-26T18:46:23.991Z,4.15
2022-10-26T18:51:22.342Z,4.50
2022-10-26T18:53:49.536Z,4.07
2022-10-26T18:56:19.293Z,3.45
2022-10-26T18:58:49.340Z,3.50
2022-10-26T19:01:19.924Z,3.25
2022-10-26T19:03:48.040Z,2.72
2022-10-26T19:06:20.934Z,2.88
2022-10-26T19:08:48.073Z,3.20
2022-10-26T19:11:17.449Z,2.55
2022-10-26T19:13:46.053Z,2.80
2022-10-26T19:16:33.509Z,3.38
2022-10-26T19:19:05.924Z,3.30
2022-10-26T19:21:32.989Z,3.28
2022-10-26T19:24:01.343Z,2.70
2022-10-26T19:26:37.789Z,4.22
2022-10-26T19:29:07.982Z,4.38
2022-10-26T19:31:38.271Z,2.97
2022-10-26T19:34:06.042Z,2.72
2022-10-26T19:36:33.814Z,2.55
2022-10-26T19:39:03.693Z,3.45
2022-10-26T19:41:31.330Z,3.30
2022-10-26T19:46:31.194Z,6.15
2022-10-26T19:49:01.005Z,3.90
2022-10-26T19:51:30.082Z,3.35
2022-10-26T19:54:04.222Z,3.15
2022-10-26T19:56:32.602Z,3.83
2022-10-26T19:59:01.060Z,3.60
2022-10-26T20:01:28.281Z,4.53
2022-10-26T20:03:55.373Z,4.07
2022-10-26T20:06:22.425Z,4.15
2022-10-26T20:08:50.131Z,3.47
2022-10-26T20:11:18.445Z,3.95
2022-10-26T20:13:47.231Z,4.18
2022-10-26T20:16:16.666Z,4.28
2022-10-26T20:18:47.671Z,4.30
2022-10-26T20:21:17.273Z,4.38
2022-10-26T20:23:45.047Z,4.75
2022-10-26T20:26:18.734Z,4.43
2022-10-26T20:28:49.100Z,4.53
2022-10-26T20:31:16.302Z,4.28
2022-10-26T20:33:43.368Z,4.82
2022-10-26T20:36:10.622Z,5.07
2022-10-26T20:38:38.927Z,4.03
2022-10-26T20:41:09.316Z,4.20
2022-10-26T20:43:39.431Z,4.80
2022-10-26T20:46:10.488Z,4.65
2022-10-26T20:48:38.672Z,4.57
2022-10-26T20:51:26.328Z,4.45
2022-10-26T20:54:15.047Z,4.57
2022-10-26T20:56:42.336Z,4.18
2022-10-26T21:02:01.233Z,4.57
2022-10-26T21:04:28.373Z,4.53
2022-10-26T21:06:55.418Z,4.72
2022-10-26T21:09:23.582Z,4.38
2022-10-26T21:11:50.798Z,4.53
2022-10-26T21:14:17.804Z,4.30
2022-10-26T21:16:44.925Z,5.43
2022-10-26T21:19:12.028Z,4.65
2022-10-26T21:21:39.057Z,4.22
2022-10-26T21:24:06.450Z,4.68
2022-10-26T21:26:33.485Z,4.40
2022-10-26T21:29:03.533Z,5.20
2022-10-26T21:31:31.093Z,4.72
2022-10-26T21:33:58.496Z,5.03
2022-10-26T21:36:25.582Z,5.40
2022-10-26T21:38:52.637Z,4.72
2022-10-26T21:41:21.001Z,5.32
2022-10-26T21:43:59.076Z,4.40
2022-10-26T21:46:37.900Z,5.20
2022-10-26T21:49:05.692Z,5.50
2022-10-26T21:51:32.750Z,5.63
2022-10-26T21:54:00.094Z,4.72
2022-10-26T21:56:27.214Z,5.15
2022-10-26T21:58:54.194Z,5.07
2022-10-26T22:01:22.717Z,5.55
2022-10-26T22:03:50.084Z,5.40
2022-10-26T22:08:47.298Z,4.85
2022-10-26T22:11:19.875Z,4.75
2022-10-26T22:13:47.917Z,4.70
2022-10-26T22:16:23.183Z,4.55
2022-10-26T22:18:51.969Z,5.40
2022-10-26T22:21:20.152Z,4.60
2022-10-26T22:23:47.509Z,5.07
2022-10-26T22:26:25.057Z,5.03
2022-10-26T22:28:55.069Z,5.45
2022-10-26T22:34:06.489Z,4.15
2022-10-26T22:36:35.373Z,5.07
2022-10-26T22:39:03.221Z,5.63
2022-10-26T22:41:31.275Z,4.93
2022-10-26T22:43:58.557Z,4.97
2022-10-26T22:46:28.204Z,4.70
2022-10-26T22:49:02.684Z,5.53
2022-10-26T22:51:32.223Z,4.35
2022-10-26T22:54:01.651Z,4.90
2022-10-26T22:56:30.973Z,4.75
2022-10-26T22:58:58.571Z,5.97
2022-10-26T23:01:31.386Z,4.78
2022-10-26T23:03:59.887Z,5.38
2022-10-26T23:06:29.976Z,4.93
2022-10-26T23:08:57.658Z,5.45
2022-10-26T23:11:26.934Z,4.85
2022-10-26T23:14:00.006Z,5.53
2022-10-26T23:16:27.984Z,5.32
2022-10-26T23:18:55.220Z,5.18
2022-10-26T23:21:24.263Z,5.47
2022-10-26T23:23:51.371Z,4.97
2022-10-26T23:26:21.035Z,5.35
2022-10-26T23:28:48.488Z,5.10
2022-10-26T23:31:21.097Z,5.22
2022-10-26T23:33:51.617Z,4.90
2022-10-26T23:36:19.161Z,5.65
2022-10-26T23:38:46.593Z,6.55
2022-10-26T23:41:13.913Z,6.25
2022-10-26T23:43:44.003Z,6.38
2022-10-26T23:46:11.088Z,5.72
2022-10-26T23:48:38.166Z,5.40
2022-10-26T23:51:05.262Z,6.25
2022-10-26T23:53:32.563Z,6.55
2022-10-26T23:56:00.132Z,5.95
2022-10-26T23:58:27.166Z,6.50
